createdAt,value
2022-08-07T00:01:12.679Z,41.42
2022-08-07T00:06:29.613Z,41.40
2022-08-07T00:11:47.819Z,40.95
2022-08-07T00:16:57.355Z,41.40
2022-08-07T00:22:02.010Z,40.83
2022-08-07T00:27:09.207Z,42.10
2022-08-07T00:32:14.067Z,40.90
2022-08-07T00:37:17.353Z,40.90
2022-08-07T00:42:29.001Z,40.97
2022-08-07T00:48:10.204Z,40.50
2022-08-07T00:52:55.749Z,40.88
2022-08-07T00:58:00.242Z,41.00
2022-08-07T01:03:03.595Z,40.58
2022-08-07T01:08:09.379Z,40.13
2022-08-07T01:13:16.411Z,40.78
2022-08-07T01:18:20.487Z,40.42
2022-08-07T01:23:36.368Z,40.60
2022-08-07T01:28:46.331Z,40.40
2022-08-07T01:33:57.573Z,41.05
2022-08-07T01:39:09.868Z,40.70
2022-08-07T01:44:15.452Z,40.40
2022-08-07T01:49:21.508Z,40.90
2022-08-07T01:54:32.959Z,40.03
2022-08-07T01:59:47.079Z,46.42
2022-08-07T02:04:57.571Z,40.33
2022-08-07T02:10:07.862Z,40.42
2022-08-07T02:15:23.781Z,40.95
2022-08-07T02:20:33.082Z,40.45
2022-08-07T02:26:31.694Z,40.85
2022-08-07T02:31:10.261Z,40.85
2022-08-07T02:36:28.945Z,40.67
2022-08-07T02:41:47.259Z,40.60
2022-08-07T02:46:55.626Z,40.40
2022-08-07T02:52:04.380Z,40.05
2022-08-07T02:57:12.876Z,40.22
2022-08-07T03:02:18.878Z,40.90
2022-08-07T03:08:05.096Z,40.38
2022-08-07T03:12:48.216Z,41.35
2022-08-07T03:17:55.519Z,40.15
2022-08-07T03:23:03.611Z,41.30
2022-08-07T03:28:38.498Z,40.17
2022-08-07T03:33:40.030Z,40.70
2022-08-07T03:38:46.486Z,40.00
2022-08-07T03:43:56.923Z,40.22
2022-08-07T03:49:03.609Z,40.50
2022-08-07T03:54:35.167Z,40.92
2022-08-07T03:59:46.795Z,40.30
2022-08-07T04:05:05.945Z,40.08
2022-08-07T04:10:15.512Z,40.47
2022-08-07T04:15:23.925Z,39.92
2022-08-07T04:20:27.806Z,40.90
2022-08-07T04:25:39.216Z,40.05
2022-08-07T04:30:57.052Z,40.28
2022-08-07T04:36:09.755Z,39.92
2022-08-07T04:41:19.030Z,40.05
2022-08-07T04:46:34.787Z,40.60
2022-08-07T04:51:54.972Z,40.58
2022-08-07T04:58:15.788Z,39.88
2022-08-07T05:02:34.644Z,39.92
2022-08-07T05:07:48.682Z,41.20
2022-08-07T05:13:10.043Z,40.15
2022-08-07T05:18:29.625Z,39.75
2022-08-07T05:23:46.383Z,39.55
2022-08-07T05:28:52.384Z,40.10
2022-08-07T05:34:05.503Z,39.80
2022-08-07T05:40:06.695Z,40.15
2022-08-07T05:44:52.769Z,39.67
2022-08-07T05:50:08.702Z,40.70
2022-08-07T05:55:13.039Z,40.33
2022-08-07T06:00:21.011Z,40.28
2022-08-07T06:05:35.880Z,40.33
2022-08-07T06:10:45.817Z,40.58
2022-08-07T06:15:50.425Z,40.15
2022-08-07T06:22:15.936Z,40.25
2022-08-07T06:26:27.442Z,40.63
2022-08-07T06:31:46.703Z,40.95
2022-08-07T06:36:56.436Z,40.17
2022-08-07T06:42:08.226Z,41.30
2022-08-07T06:47:48.017Z,40.47
2022-08-07T06:53:04.495Z,40.97
2022-08-07T06:58:13.442Z,40.58
2022-08-07T07:03:47.978Z,41.13
2022-08-07T07:08:53.952Z,41.10
2022-08-07T07:14:01.421Z,41.35
2022-08-07T07:19:34.119Z,41.35
2022-08-07T07:24:32.974Z,41.33
2022-08-07T07:30:09.056Z,41.20
2022-08-07T07:35:04.671Z,40.90
2022-08-07T07:40:15.679Z,41.35
2022-08-07T07:45:22.811Z,41.40
2022-08-07T07:50:44.187Z,41.03
2022-08-07T07:55:54.841Z,41.42
2022-08-07T08:01:02.065Z,40.80
2022-08-07T08:06:26.847Z,40.95
2022-08-07T08:11:59.970Z,41.45
2022-08-07T08:16:57.128Z,42.22
2022-08-07T08:22:54.158Z,41.55
2022-08-07T08:28:04.292Z,41.63
2022-08-07T08:33:10.577Z,41.55
2022-08-07T08:38:20.836Z,41.60
2022-08-07T08:43:42.078Z,41.38
2022-08-07T08:48:52.880Z,41.42
2022-08-07T08:54:02.061Z,42.08
2022-08-07T08:59:16.452Z,42.70
2022-08-07T09:04:28.783Z,42.75
2022-08-07T09:09:48.057Z,42.42
2022-08-07T09:16:21.903Z,42.28
2022-08-07T09:20:58.510Z,42.15
2022-08-07T09:26:20.681Z,43.05
2022-08-07T09:31:38.502Z,42.63
2022-08-07T09:36:50.164Z,42.92
2022-08-07T09:42:07.634Z,42.67
2022-08-07T09:47:51.623Z,42.65
2022-08-07T09:52:51.834Z,45.45
2022-08-07T09:58:32.256Z,44.05
2022-08-07T10:04:14.980Z,42.88
2022-08-07T10:10:00.253Z,43.58
2022-08-07T10:15:37.841Z,43.28
2022-08-07T10:21:19.608Z,43.58
2022-08-07T10:26:53.036Z,43.45
2022-08-07T10:32:51.510Z,43.65
2022-08-07T10:38:33.098Z,44.13
2022-08-07T10:43:34.768Z,43.28
2022-08-07T10:48:48.515Z,43.30
2022-08-07T10:54:01.417Z,43.50
2022-08-07T10:59:21.291Z,43.78
2022-08-07T11:04:41.416Z,43.55
2022-08-07T11:10:10.185Z,43.60
2022-08-07T11:15:18.718Z,43.90
2022-08-07T11:20:25.379Z,43.95
2022-08-07T11:25:47.886Z,45.13
2022-08-07T11:30:58.829Z,44.13
2022-08-07T11:36:25.142Z,44.22
2022-08-07T11:42:01.377Z,44.95
2022-08-07T11:47:13.587Z,44.90
2022-08-07T11:52:37.571Z,44.67
2022-08-07T11:58:00.025Z,45.55
2022-08-07T12:03:45.239Z,44.95
2022-08-07T12:08:54.659Z,44.30
2022-08-07T12:14:08.430Z,44.53
2022-08-07T12:19:21.317Z,44.80
2022-08-07T12:24:38.181Z,44.58
2022-08-07T12:29:51.786Z,44.65
2022-08-07T12:34:57.255Z,44.42
2022-08-07T12:40:02.756Z,44.78
2022-08-07T12:45:16.574Z,44.42
2022-08-07T12:50:39.372Z,44.55
2022-08-07T12:56:03.113Z,44.67
2022-08-07T13:01:19.945Z,43.75
2022-08-07T13:07:00.265Z,44.03
2022-08-07T13:12:15.054Z,44.33
2022-08-07T13:17:39.696Z,44.25
2022-08-07T13:22:53.595Z,44.92
2022-08-07T13:28:13.951Z,43.95
2022-08-07T13:34:30.878Z,44.08
2022-08-07T13:39:01.896Z,44.03
2022-08-07T13:44:10.452Z,44.08
2022-08-07T13:50:33.870Z,44.30
2022-08-07T13:54:49.438Z,43.95
2022-08-07T13:59:57.490Z,43.50
2022-08-07T14:05:05.724Z,44.45
2022-08-07T14:10:21.930Z,43.65
2022-08-07T14:15:36.341Z,43.90
2022-08-07T14:20:48.781Z,44.10
2022-08-07T14:25:59.144Z,45.28
2022-08-07T14:31:02.727Z,44.00
2022-08-07T14:36:08.790Z,44.13
2022-08-07T14:41:14.948Z,43.92
2022-08-07T14:46:30.669Z,45.25
2022-08-07T14:52:02.849Z,44.17
2022-08-07T14:57:04.125Z,43.53
2022-08-07T15:02:33.137Z,43.65
2022-08-07T15:13:06.202Z,44.35
2022-08-07T15:25:12.890Z,44.38
2022-08-07T15:30:08.585Z,43.70
2022-08-07T15:34:26.992Z,43.65
2022-08-07T15:39:56.449Z,44.38
2022-08-07T15:44:55.484Z,43.92
2022-08-07T15:50:05.069Z,43.75
2022-08-07T15:55:20.666Z,44.53
2022-08-07T16:00:33.708Z,44.20
2022-08-07T16:05:39.554Z,44.08
2022-08-07T16:10:48.748Z,44.03
2022-08-07T16:16:06.616Z,44.15
2022-08-07T16:21:44.492Z,44.35
2022-08-07T16:27:18.039Z,44.13
2022-08-07T16:32:34.703Z,44.58
2022-08-07T16:38:09.627Z,44.60
2022-08-07T16:44:03.953Z,44.35
2022-08-07T16:50:20.545Z,45.13
2022-08-07T16:55:03.240Z,44.60
2022-08-07T17:00:17.324Z,44.47
2022-08-07T17:06:18.971Z,44.83
2022-08-07T17:11:14.399Z,44.40
2022-08-07T17:16:24.989Z,44.40
2022-08-07T17:21:50.884Z,44.05
2022-08-07T17:27:01.348Z,44.53
2022-08-07T17:32:30.318Z,44.15
2022-08-07T17:38:05.482Z,46.00
2022-08-07T17:43:18.158Z,44.83
2022-08-07T17:48:30.387Z,43.85
2022-08-07T17:54:01.633Z,44.10
2022-08-07T17:59:17.005Z,44.25
2022-08-07T18:04:31.106Z,44.15
2022-08-07T18:10:05.237Z,44.97
2022-08-07T18:15:10.887Z,44.33
2022-08-07T18:21:11.946Z,44.35
2022-08-07T18:25:49.174Z,44.08
2022-08-07T18:31:09.707Z,44.45
2022-08-07T18:36:32.697Z,43.85
2022-08-07T18:41:54.514Z,43.85
2022-08-07T18:47:06.830Z,44.00
2022-08-07T18:52:53.036Z,44.17
2022-08-07T18:58:22.990Z,43.70
2022-08-07T19:03:38.230Z,44.22
2022-08-07T19:08:58.639Z,44.47
2022-08-07T19:14:19.970Z,43.75
2022-08-07T19:19:33.455Z,44.10
2022-08-07T19:24:43.419Z,43.90
2022-08-07T19:31:03.754Z,43.83
2022-08-07T19:35:22.498Z,43.55
2022-08-07T19:40:31.754Z,43.85
2022-08-07T19:46:07.837Z,43.83
2022-08-07T19:51:20.540Z,43.75
2022-08-07T19:56:58.613Z,44.05
2022-08-07T20:01:59.884Z,43.78
2022-08-07T20:07:04.640Z,43.42
2022-08-07T20:12:31.979Z,43.55
2022-08-07T20:17:38.719Z,43.63
2022-08-07T20:22:46.149Z,44.25
2022-08-07T20:27:54.891Z,43.30
2022-08-07T20:33:03.948Z,43.83
2022-08-07T20:38:08.680Z,43.55
2022-08-07T20:43:19.469Z,43.35
2022-08-07T20:48:29.821Z,43.95
2022-08-07T20:54:04.015Z,43.33
2022-08-07T20:59:05.808Z,43.38
2022-08-07T21:04:25.151Z,43.33
2022-08-07T21:09:51.732Z,43.20
2022-08-07T21:14:58.163Z,42.88
2022-08-07T21:20:06.055Z,43.65
2022-08-07T21:25:14.491Z,43.03
2022-08-07T21:30:23.508Z,43.25
2022-08-07T21:36:03.998Z,43.35
2022-08-07T21:41:09.531Z,43.38
2022-08-07T21:46:25.183Z,43.05
2022-08-07T21:51:51.050Z,43.05
2022-08-07T21:57:30.924Z,42.72
2022-08-07T22:02:45.407Z,43.78
2022-08-07T22:07:58.364Z,42.88
2022-08-07T22:13:05.791Z,42.97
2022-08-07T22:18:22.809Z,42.67
2022-08-07T22:23:31.266Z,43.00
2022-08-07T22:28:48.304Z,42.72
2022-08-07T22:34:05.405Z,43.05
2022-08-07T22:39:13.979Z,42.78
2022-08-07T22:44:22.630Z,42.60
2022-08-07T22:49:54.530Z,42.28
2022-08-07T22:55:29.926Z,42.35
2022-08-07T23:00:40.743Z,42.15
2022-08-07T23:06:08.793Z,42.30
2022-08-07T23:11:35.252Z,42.35
2022-08-07T23:16:59.745Z,41.97
2022-08-07T23:22:16.787Z,42.15
2022-08-07T23:27:36.497Z,42.38
2022-08-07T23:34:36.712Z,42.38
2022-08-07T23:38:55.096Z,42.03
2022-08-07T23:44:14.755Z,42.15
2022-08-07T23:49:42.303Z,42.65
2022-08-07T23:55:01.465Z,42.40
